sensor_id;sensor_type;location;lat;lon;timestamp;temperature;humidity
10472;DHT22;5283;48.876;8.962;2023-07-24T00:01:52;16.00;99.90
10472;DHT22;5283;48.876;8.962;2023-07-24T00:04:19;16.10;99.90
10472;DHT22;5283;48.876;8.962;2023-07-24T00:06:46;16.00;99.90
10472;DHT22;5283;48.876;8.962;2023-07-24T00:12:31;16.00;99.90
10472;DHT22;5283;48.876;8.962;2023-07-24T00:14:58;16.00;99.90
10472;DHT22;5283;48.876;8.962;2023-07-24T00:17:25;16.00;99.90
10472;DHT22;5283;48.876;8.962;2023-07-24T00:23:44;16.00;99.90
10472;DHT22;5283;48.876;8.962;2023-07-24T00:26:11;15.90;99.90
10472;DHT22;5283;48.876;8.962;2023-07-24T00:28:38;16.00;99.90
10472;DHT22;5283;48.876;8.962;2023-07-24T00:31:05;16.00;99.90
10472;DHT22;5283;48.876;8.962;2023-07-24T00:33:32;16.10;99.90
10472;DHT22;5283;48.876;8.962;2023-07-24T01:44:12;15.40;99.90
10472;DHT22;5283;48.876;8.962;2023-07-24T02:04:41;15.40;99.90
10472;DHT22;5283;48.876;8.962;2023-07-24T02:07:08;15.40;99.90
10472;DHT22;5283;48.876;8.962;2023-07-24T02:09:35;15.40;99.90
10472;DHT22;5283;48.876;8.962;2023-07-24T02:12:28;15.40;99.90
10472;DHT22;5283;48.876;8.962;2023-07-24T02:18:52;15.50;99.90
10472;DHT22;5283;48.876;8.962;2023-07-24T02:25:27;15.50;99.90
10472;DHT22;5283;48.876;8.962;2023-07-24T02:31:46;15.30;99.90
10472;DHT22;5283;48.876;8.962;2023-07-24T02:38:06;15.10;99.90
10472;DHT22;5283;48.876;8.962;2023-07-24T02:40:33;15.10;99.90
10472;DHT22;5283;48.876;8.962;2023-07-24T02:43:00;15.10;99.90
10472;DHT22;5283;48.876;8.962;2023-07-24T02:45:27;15.00;99.90
10472;DHT22;5283;48.876;8.962;2023-07-24T02:47:53;15.00;99.90
10472;DHT22;5283;48.876;8.962;2023-07-24T02:50:20;15.00;99.90
10472;DHT22;5283;48.876;8.962;2023-07-24T02:52:47;15.00;99.90
10472;DHT22;5283;48.876;8.962;2023-07-24T02:55:14;15.00;99.90
10472;DHT22;5283;48.876;8.962;2023-07-24T02:57:40;15.00;99.90
10472;DHT22;5283;48.876;8.962;2023-07-24T03:00:08;15.00;99.90
10472;DHT22;5283;48.876;8.962;2023-07-24T03:02:34;15.00;99.90
10472;DHT22;5283;48.876;8.962;2023-07-24T03:05:02;15.00;99.90
10472;DHT22;5283;48.876;8.962;2023-07-24T03:07:29;15.00;99.90
10472;DHT22;5283;48.876;8.962;2023-07-24T03:09:56;14.90;99.90
10472;DHT22;5283;48.876;8.962;2023-07-24T03:12:52;14.90;99.90
10472;DHT22;5283;48.876;8.962;2023-07-24T03:15:20;14.90;99.90
10472;DHT22;5283;48.876;8.962;2023-07-24T03:17:47;14.90;99.90
10472;DHT22;5283;48.876;8.962;2023-07-24T03:20:16;14.80;99.90
10472;DHT22;5283;48.876;8.962;2023-07-24T03:22:44;14.90;99.90
10472;DHT22;5283;48.876;8.962;2023-07-24T03:25:11;14.90;99.90
10472;DHT22;5283;48.876;8.962;2023-07-24T03:27:38;14.90;99.90
10472;DHT22;5283;48.876;8.962;2023-07-24T03:30:05;14.90;99.90
10472;DHT22;5283;48.876;8.962;2023-07-24T03:32:36;14.90;99.90
10472;DHT22;5283;48.876;8.962;2023-07-24T03:38:19;14.90;99.90
10472;DHT22;5283;48.876;8.962;2023-07-24T03:44:40;14.90;99.90
10472;DHT22;5283;48.876;8.962;2023-07-24T03:47:07;14.90;99.90
10472;DHT22;5283;48.876;8.962;2023-07-24T03:49:34;14.80;99.90
10472;DHT22;5283;48.876;8.962;2023-07-24T03:52:01;14.80;99.90
10472;DHT22;5283;48.876;8.962;2023-07-24T03:54:28;14.80;99.90
10472;DHT22;5283;48.876;8.962;2023-07-24T03:56:54;14.80;99.90
10472;DHT22;5283;48.876;8.962;2023-07-24T03:59:21;14.80;99.90
10472;DHT22;5283;48.876;8.962;2023-07-24T04:05:35;14.90;99.90
10472;DHT22;5283;48.876;8.962;2023-07-24T04:08:34;15.00;99.90
10472;DHT22;5283;48.876;8.962;2023-07-24T04:15:09;15.10;99.90
10472;DHT22;5283;48.876;8.962;2023-07-24T04:21:30;15.60;99.90
10472;DHT22;5283;48.876;8.962;2023-07-24T04:23:57;15.70;99.90
10472;DHT22;5283;48.876;8.962;2023-07-24T04:26:24;15.70;99.90
10472;DHT22;5283;48.876;8.962;2023-07-24T04:32:38;15.30;99.90
10472;DHT22;5283;48.876;8.962;2023-07-24T04:38:52;15.40;99.90
10472;DHT22;5283;48.876;8.962;2023-07-24T04:41:19;15.70;99.90
10472;DHT22;5283;48.876;8.962;2023-07-24T04:43:46;15.70;99.90
10472;DHT22;5283;48.876;8.962;2023-07-24T05:44:25;16.30;99.90
10472;DHT22;5283;48.876;8.962;2023-07-24T05:50:01;16.60;99.90
10472;DHT22;5283;48.876;8.962;2023-07-24T05:52:27;16.50;99.90
10472;DHT22;5283;48.876;8.962;2023-07-24T06:10:17;17.50;99.90
10472;DHT22;5283;48.876;8.962;2023-07-24T06:23:28;17.80;99.90
10472;DHT22;5283;48.876;8.962;2023-07-24T06:25:55;18.00;99.90
10472;DHT22;5283;48.876;8.962;2023-07-24T06:28:22;17.70;99.90
10472;DHT22;5283;48.876;8.962;2023-07-24T06:30:56;18.00;99.90
10472;DHT22;5283;48.876;8.962;2023-07-24T06:33:23;18.00;99.90
10472;DHT22;5283;48.876;8.962;2023-07-24T06:35:50;18.00;99.90
10472;DHT22;5283;48.876;8.962;2023-07-24T06:38:18;17.90;99.90
10472;DHT22;5283;48.876;8.962;2023-07-24T06:40:47;18.10;99.90
10472;DHT22;5283;48.876;8.962;2023-07-24T06:46:32;18.50;99.90
10472;DHT22;5283;48.876;8.962;2023-07-24T06:48:59;18.60;99.90
10472;DHT22;5283;48.876;8.962;2023-07-24T06:51:27;18.70;99.90
10472;DHT22;5283;48.876;8.962;2023-07-24T06:53:54;18.90;99.90
10472;DHT22;5283;48.876;8.962;2023-07-24T06:56:22;19.10;99.90
10472;DHT22;5283;48.876;8.962;2023-07-24T06:58:49;19.40;99.90
10472;DHT22;5283;48.876;8.962;2023-07-24T07:01:15;19.50;99.90
10472;DHT22;5283;48.876;8.962;2023-07-24T07:03:42;19.70;99.90
10472;DHT22;5283;48.876;8.962;2023-07-24T07:06:09;19.90;99.90
10472;DHT22;5283;48.876;8.962;2023-07-24T07:08:53;20.10;99.90
10472;DHT22;5283;48.876;8.962;2023-07-24T07:11:20;20.10;99.90
10472;DHT22;5283;48.876;8.962;2023-07-24T07:17:04;20.30;99.90
10472;DHT22;5283;48.876;8.962;2023-07-24T07:19:31;20.40;99.90
10472;DHT22;5283;48.876;8.962;2023-07-24T07:21:57;20.40;99.90
10472;DHT22;5283;48.876;8.962;2023-07-24T07:24:24;20.60;99.90
10472;DHT22;5283;48.876;8.962;2023-07-24T07:26:52;20.70;99.90
10472;DHT22;5283;48.876;8.962;2023-07-24T07:29:18;20.80;99.90
10472;DHT22;5283;48.876;8.962;2023-07-24T07:31:45;20.80;99.90
10472;DHT22;5283;48.876;8.962;2023-07-24T07:34:24;20.70;99.90
10472;DHT22;5283;48.876;8.962;2023-07-24T07:36:51;20.70;99.90
10472;DHT22;5283;48.876;8.962;2023-07-24T07:39:18;20.70;99.90
10472;DHT22;5283;48.876;8.962;2023-07-24T07:41:44;20.70;99.90
10472;DHT22;5283;48.876;8.962;2023-07-24T07:44:12;20.60;99.90
10472;DHT22;5283;48.876;8.962;2023-07-24T07:46:39;20.40;99.90
10472;DHT22;5283;48.876;8.962;2023-07-24T07:49:07;20.30;99.90
10472;DHT22;5283;48.876;8.962;2023-07-24T07:51:35;20.10;99.90
10472;DHT22;5283;48.876;8.962;2023-07-24T07:57:46;20.00;99.90
10472;DHT22;5283;48.876;8.962;2023-07-24T08:00:30;19.80;99.90
10472;DHT22;5283;48.876;8.962;2023-07-24T08:02:58;19.60;99.90
10472;DHT22;5283;48.876;8.962;2023-07-24T08:05:25;19.50;99.90
10472;DHT22;5283;48.876;8.962;2023-07-24T08:07:52;19.30;99.90
10472;DHT22;5283;48.876;8.962;2023-07-24T08:10:19;19.30;99.90
10472;DHT22;5283;48.876;8.962;2023-07-24T08:12:45;19.10;99.90
10472;DHT22;5283;48.876;8.962;2023-07-24T08:15:12;19.10;99.90
10472;DHT22;5283;48.876;8.962;2023-07-24T08:17:39;19.00;99.90
10472;DHT22;5283;48.876;8.962;2023-07-24T08:20:06;18.90;99.90
10472;DHT22;5283;48.876;8.962;2023-07-24T08:22:33;18.70;99.90
10472;DHT22;5283;48.876;8.962;2023-07-24T08:25:00;18.60;99.90
10472;DHT22;5283;48.876;8.962;2023-07-24T08:27:27;18.40;99.90
10472;DHT22;5283;48.876;8.962;2023-07-24T08:29:53;18.30;99.90
10472;DHT22;5283;48.876;8.962;2023-07-24T08:32:20;18.30;99.90
10472;DHT22;5283;48.876;8.962;2023-07-24T08:34:47;18.30;99.90
10472;DHT22;5283;48.876;8.962;2023-07-24T08:37:14;18.40;99.90
10472;DHT22;5283;48.876;8.962;2023-07-24T08:39:41;18.40;99.90
10472;DHT22;5283;48.876;8.962;2023-07-24T08:42:12;18.50;99.90
10472;DHT22;5283;48.876;8.962;2023-07-24T08:44:39;18.60;99.90
10472;DHT22;5283;48.876;8.962;2023-07-24T08:47:09;18.70;99.90
10472;DHT22;5283;48.876;8.962;2023-07-24T08:49:38;18.70;99.90
10472;DHT22;5283;48.876;8.962;2023-07-24T08:52:08;18.70;99.90
10472;DHT22;5283;48.876;8.962;2023-07-24T08:54:36;18.80;99.90
10472;DHT22;5283;48.876;8.962;2023-07-24T08:57:08;18.80;99.90
10472;DHT22;5283;48.876;8.962;2023-07-24T08:59:35;18.90;99.90
10472;DHT22;5283;48.876;8.962;2023-07-24T09:02:02;18.90;99.90
10472;DHT22;5283;48.876;8.962;2023-07-24T09:04:29;19.10;99.90
10472;DHT22;5283;48.876;8.962;2023-07-24T09:06:58;19.40;99.90
10472;DHT22;5283;48.876;8.962;2023-07-24T09:09:30;19.90;99.90
10472;DHT22;5283;48.876;8.962;2023-07-24T09:11:59;20.50;99.90
10472;DHT22;5283;48.876;8.962;2023-07-24T09:14:29;21.00;99.90
10472;DHT22;5283;48.876;8.962;2023-07-24T09:17:05;21.40;99.90
10472;DHT22;5283;48.876;8.962;2023-07-24T09:19:33;22.00;99.90
10472;DHT22;5283;48.876;8.962;2023-07-24T09:22:15;22.30;99.90
10472;DHT22;5283;48.876;8.962;2023-07-24T09:24:57;22.50;99.90
10472;DHT22;5283;48.876;8.962;2023-07-24T09:27:26;22.30;99.90
10472;DHT22;5283;48.876;8.962;2023-07-24T09:29:54;22.10;99.90
10472;DHT22;5283;48.876;8.962;2023-07-24T09:32:26;22.30;99.90
10472;DHT22;5283;48.876;8.962;2023-07-24T09:34:53;22.10;99.90
10472;DHT22;5283;48.876;8.962;2023-07-24T09:37:33;22.00;99.90
10472;DHT22;5283;48.876;8.962;2023-07-24T09:40:04;22.30;99.90
10472;DHT22;5283;48.876;8.962;2023-07-24T09:42:33;22.50;99.90
10472;DHT22;5283;48.876;8.962;2023-07-24T09:45:04;22.70;99.90
10472;DHT22;5283;48.876;8.962;2023-07-24T09:47:31;22.30;99.90
10472;DHT22;5283;48.876;8.962;2023-07-24T09:50:18;22.20;99.90
10472;DHT22;5283;48.876;8.962;2023-07-24T09:52:47;22.20;99.90
10472;DHT22;5283;48.876;8.962;2023-07-24T09:55:26;22.10;99.90
10472;DHT22;5283;48.876;8.962;2023-07-24T09:57:56;21.80;99.90
10472;DHT22;5283;48.876;8.962;2023-07-24T10:00:24;21.40;99.90
10472;DHT22;5283;48.876;8.962;2023-07-24T10:02:51;21.40;99.90
10472;DHT22;5283;48.876;8.962;2023-07-24T10:05:18;21.20;99.90
10472;DHT22;5283;48.876;8.962;2023-07-24T10:07:45;21.20;99.90
10472;DHT22;5283;48.876;8.962;2023-07-24T10:10:12;21.10;99.90
10472;DHT22;5283;48.876;8.962;2023-07-24T10:12:40;21.10;99.90
10472;DHT22;5283;48.876;8.962;2023-07-24T10:15:07;21.10;99.90
10472;DHT22;5283;48.876;8.962;2023-07-24T10:17:39;21.10;99.90
10472;DHT22;5283;48.876;8.962;2023-07-24T10:20:08;20.90;99.90
10472;DHT22;5283;48.876;8.962;2023-07-24T10:22:36;20.70;99.90
10472;DHT22;5283;48.876;8.962;2023-07-24T10:25:09;20.60;99.90
10472;DHT22;5283;48.876;8.962;2023-07-24T10:27:41;20.40;99.90
10472;DHT22;5283;48.876;8.962;2023-07-24T10:30:09;20.30;99.90
10472;DHT22;5283;48.876;8.962;2023-07-24T10:32:48;20.10;99.90
10472;DHT22;5283;48.876;8.962;2023-07-24T10:35:17;20.00;99.90
10472;DHT22;5283;48.876;8.962;2023-07-24T10:37:46;19.90;99.90
10472;DHT22;5283;48.876;8.962;2023-07-24T10:40:22;19.70;99.90
10472;DHT22;5283;48.876;8.962;2023-07-24T10:43:08;19.60;99.90
10472;DHT22;5283;48.876;8.962;2023-07-24T10:45:52;19.50;99.90
10472;DHT22;5283;48.876;8.962;2023-07-24T10:48:20;19.40;99.90
10472;DHT22;5283;48.876;8.962;2023-07-24T10:50:49;19.30;99.90
10472;DHT22;5283;48.876;8.962;2023-07-24T10:53:20;19.20;99.90
10472;DHT22;5283;48.876;8.962;2023-07-24T10:55:47;19.10;99.90
10472;DHT22;5283;48.876;8.962;2023-07-24T10:58:14;19.10;99.90
10472;DHT22;5283;48.876;8.962;2023-07-24T11:00:42;19.10;99.90
10472;DHT22;5283;48.876;8.962;2023-07-24T11:03:14;19.00;99.90
10472;DHT22;5283;48.876;8.962;2023-07-24T11:05:45;19.00;99.90
10472;DHT22;5283;48.876;8.962;2023-07-24T11:08:19;18.90;99.90
10472;DHT22;5283;48.876;8.962;2023-07-24T11:11:33;18.90;99.90
10472;DHT22;5283;48.876;8.962;2023-07-24T11:14:01;18.80;99.90
10472;DHT22;5283;48.876;8.962;2023-07-24T11:16:28;18.90;99.90
10472;DHT22;5283;48.876;8.962;2023-07-24T11:18:57;18.90;99.90
10472;DHT22;5283;48.876;8.962;2023-07-24T11:21:24;18.80;99.90
10472;DHT22;5283;48.876;8.962;2023-07-24T11:23:53;18.80;99.90
10472;DHT22;5283;48.876;8.962;2023-07-24T11:26:22;18.90;99.90
10472;DHT22;5283;48.876;8.962;2023-07-24T11:28:50;18.90;99.90
10472;DHT22;5283;48.876;8.962;2023-07-24T11:31:17;18.90;99.90
10472;DHT22;5283;48.876;8.962;2023-07-24T11:33:51;18.90;99.90
10472;DHT22;5283;48.876;8.962;2023-07-24T11:36:19;18.90;99.90
10472;DHT22;5283;48.876;8.962;2023-07-24T11:38:46;18.90;99.90
10472;DHT22;5283;48.876;8.962;2023-07-24T11:41:13;18.90;99.90
10472;DHT22;5283;48.876;8.962;2023-07-24T11:43:49;19.20;99.90
10472;DHT22;5283;48.876;8.962;2023-07-24T11:46:28;19.60;99.90
10472;DHT22;5283;48.876;8.962;2023-07-24T11:48:55;20.00;99.90
10472;DHT22;5283;48.876;8.962;2023-07-24T11:51:25;20.50;99.90
10472;DHT22;5283;48.876;8.962;2023-07-24T11:54:05;20.90;99.90
10472;DHT22;5283;48.876;8.962;2023-07-24T11:56:32;21.40;99.90
10472;DHT22;5283;48.876;8.962;2023-07-24T11:59:14;21.60;99.90
10472;DHT22;5283;48.876;8.962;2023-07-24T12:01:46;21.60;99.90
10472;DHT22;5283;48.876;8.962;2023-07-24T12:04:15;21.50;99.90
10472;DHT22;5283;48.876;8.962;2023-07-24T12:06:44;21.20;99.90
10472;DHT22;5283;48.876;8.962;2023-07-24T12:09:11;21.10;99.90
10472;DHT22;5283;48.876;8.962;2023-07-24T12:11:45;20.90;99.90
10472;DHT22;5283;48.876;8.962;2023-07-24T12:14:15;20.70;99.90
10472;DHT22;5283;48.876;8.962;2023-07-24T12:16:42;20.30;99.90
10472;DHT22;5283;48.876;8.962;2023-07-24T12:19:09;20.00;99.90
10472;DHT22;5283;48.876;8.962;2023-07-24T12:21:36;19.90;99.90
10472;DHT22;5283;48.876;8.962;2023-07-24T12:24:03;19.70;99.90
10472;DHT22;5283;48.876;8.962;2023-07-24T12:26:30;19.50;99.90
10472;DHT22;5283;48.876;8.962;2023-07-24T12:28:56;19.40;99.90
10472;DHT22;5283;48.876;8.962;2023-07-24T12:31:26;19.20;99.90
10472;DHT22;5283;48.876;8.962;2023-07-24T12:33:53;19.10;99.90
10472;DHT22;5283;48.876;8.962;2023-07-24T12:36:20;19.00;99.90
10472;DHT22;5283;48.876;8.962;2023-07-24T12:38:46;19.00;99.90
10472;DHT22;5283;48.876;8.962;2023-07-24T12:41:15;19.00;99.90
10472;DHT22;5283;48.876;8.962;2023-07-24T12:43:43;18.90;99.90
10472;DHT22;5283;48.876;8.962;2023-07-24T12:46:10;18.90;99.90
10472;DHT22;5283;48.876;8.962;2023-07-24T12:48:37;18.80;99.90
10472;DHT22;5283;48.876;8.962;2023-07-24T12:51:04;18.90;99.90
10472;DHT22;5283;48.876;8.962;2023-07-24T12:53:31;18.80;99.90
10472;DHT22;5283;48.876;8.962;2023-07-24T12:55:57;18.80;99.90
10472;DHT22;5283;48.876;8.962;2023-07-24T12:58:24;18.80;99.90
10472;DHT22;5283;48.876;8.962;2023-07-24T13:00:51;18.80;99.90
10472;DHT22;5283;48.876;8.962;2023-07-24T13:03:18;18.90;99.90
10472;DHT22;5283;48.876;8.962;2023-07-24T13:05:45;18.90;99.90
10472;DHT22;5283;48.876;8.962;2023-07-24T13:08:12;18.90;99.90
10472;DHT22;5283;48.876;8.962;2023-07-24T13:10:39;18.90;99.90
10472;DHT22;5283;48.876;8.962;2023-07-24T13:13:05;18.80;99.90
10472;DHT22;5283;48.876;8.962;2023-07-24T13:15:32;18.90;99.90
10472;DHT22;5283;48.876;8.962;2023-07-24T13:17:59;18.80;99.90
10472;DHT22;5283;48.876;8.962;2023-07-24T13:20:30;18.90;99.90
10472;DHT22;5283;48.876;8.962;2023-07-24T13:23:01;18.90;99.90
10472;DHT22;5283;48.876;8.962;2023-07-24T13:25:28;19.00;99.90
10472;DHT22;5283;48.876;8.962;2023-07-24T13:27:55;19.10;99.90
10472;DHT22;5283;48.876;8.962;2023-07-24T13:30:22;19.20;99.90
10472;DHT22;5283;48.876;8.962;2023-07-24T13:32:49;19.20;99.90
10472;DHT22;5283;48.876;8.962;2023-07-24T13:35:15;19.20;99.90
10472;DHT22;5283;48.876;8.962;2023-07-24T13:37:42;19.30;99.90
10472;DHT22;5283;48.876;8.962;2023-07-24T13:40:09;19.40;99.90
10472;DHT22;5283;48.876;8.962;2023-07-24T13:42:36;19.70;99.90
10472;DHT22;5283;48.876;8.962;2023-07-24T13:45:03;20.10;99.90
10472;DHT22;5283;48.876;8.962;2023-07-24T13:47:30;20.40;99.90
10472;DHT22;5283;48.876;8.962;2023-07-24T13:49:57;20.50;99.90
10472;DHT22;5283;48.876;8.962;2023-07-24T13:52:25;20.70;99.90
10472;DHT22;5283;48.876;8.962;2023-07-24T13:54:51;21.10;99.90
10472;DHT22;5283;48.876;8.962;2023-07-24T13:57:18;21.70;99.90
10472;DHT22;5283;48.876;8.962;2023-07-24T13:59:45;22.10;99.90
10472;DHT22;5283;48.876;8.962;2023-07-24T14:02:12;22.50;99.90
10472;DHT22;5283;48.876;8.962;2023-07-24T14:04:40;22.70;99.90
10472;DHT22;5283;48.876;8.962;2023-07-24T14:07:07;23.20;99.90
10472;DHT22;5283;48.876;8.962;2023-07-24T14:09:34;23.60;99.90
10472;DHT22;5283;48.876;8.962;2023-07-24T14:12:01;23.60;99.90
10472;DHT22;5283;48.876;8.962;2023-07-24T14:14:28;23.90;99.90
10472;DHT22;5283;48.876;8.962;2023-07-24T14:16:55;24.10;99.90
10472;DHT22;5283;48.876;8.962;2023-07-24T14:19:21;23.80;99.90
10472;DHT22;5283;48.876;8.962;2023-07-24T14:21:50;24.00;99.90
10472;DHT22;5283;48.876;8.962;2023-07-24T14:24:17;23.80;99.90
10472;DHT22;5283;48.876;8.962;2023-07-24T14:26:44;23.60;99.90
10472;DHT22;5283;48.876;8.962;2023-07-24T14:29:11;23.40;99.90
10472;DHT22;5283;48.876;8.962;2023-07-24T14:31:38;23.20;99.90
10472;DHT22;5283;48.876;8.962;2023-07-24T14:34:05;23.30;99.90
10472;DHT22;5283;48.876;8.962;2023-07-24T14:36:38;23.40;99.90
10472;DHT22;5283;48.876;8.962;2023-07-24T14:39:05;23.60;99.90
10472;DHT22;5283;48.876;8.962;2023-07-24T14:41:31;23.80;99.90
10472;DHT22;5283;48.876;8.962;2023-07-24T14:43:58;24.00;99.90
10472;DHT22;5283;48.876;8.962;2023-07-24T14:46:25;24.00;99.90
10472;DHT22;5283;48.876;8.962;2023-07-24T14:48:52;24.10;99.90
10472;DHT22;5283;48.876;8.962;2023-07-24T14:51:19;24.40;99.90
10472;DHT22;5283;48.876;8.962;2023-07-24T14:53:45;24.40;99.90
10472;DHT22;5283;48.876;8.962;2023-07-24T14:56:12;24.20;99.90
10472;DHT22;5283;48.876;8.962;2023-07-24T14:58:39;24.10;99.90
10472;DHT22;5283;48.876;8.962;2023-07-24T15:01:08;23.70;99.90
10472;DHT22;5283;48.876;8.962;2023-07-24T15:03:35;23.90;99.90
10472;DHT22;5283;48.876;8.962;2023-07-24T15:06:02;23.90;99.90
10472;DHT22;5283;48.876;8.962;2023-07-24T15:08:31;24.10;99.90
10472;DHT22;5283;48.876;8.962;2023-07-24T15:10:58;24.20;99.90
10472;DHT22;5283;48.876;8.962;2023-07-24T15:13:24;24.20;99.90
10472;DHT22;5283;48.876;8.962;2023-07-24T15:15:51;24.00;99.90
10472;DHT22;5283;48.876;8.962;2023-07-24T15:18:18;24.20;99.90
10472;DHT22;5283;48.876;8.962;2023-07-24T15:20:45;24.10;99.90
10472;DHT22;5283;48.876;8.962;2023-07-24T15:23:12;24.20;99.90
10472;DHT22;5283;48.876;8.962;2023-07-24T15:25:40;24.30;99.90
10472;DHT22;5283;48.876;8.962;2023-07-24T15:28:09;24.30;99.90
10472;DHT22;5283;48.876;8.962;2023-07-24T15:30:35;24.10;99.90
10472;DHT22;5283;48.876;8.962;2023-07-24T15:33:02;23.80;99.90
10472;DHT22;5283;48.876;8.962;2023-07-24T15:35:29;23.40;99.90
10472;DHT22;5283;48.876;8.962;2023-07-24T15:37:56;23.40;99.90
10472;DHT22;5283;48.876;8.962;2023-07-24T15:40:22;23.20;99.90
10472;DHT22;5283;48.876;8.962;2023-07-24T15:42:49;23.00;99.90
10472;DHT22;5283;48.876;8.962;2023-07-24T15:45:16;22.90;99.90
10472;DHT22;5283;48.876;8.962;2023-07-24T15:47:43;22.80;99.90
10472;DHT22;5283;48.876;8.962;2023-07-24T15:50:10;22.70;99.90
10472;DHT22;5283;48.876;8.962;2023-07-24T15:52:37;22.60;99.90
10472;DHT22;5283;48.876;8.962;2023-07-24T15:55:05;22.40;99.90
10472;DHT22;5283;48.876;8.962;2023-07-24T15:57:32;22.40;99.90
10472;DHT22;5283;48.876;8.962;2023-07-24T15:59:58;22.20;99.90
10472;DHT22;5283;48.876;8.962;2023-07-24T16:02:25;22.00;99.90
10472;DHT22;5283;48.876;8.962;2023-07-24T16:04:52;21.80;99.90
10472;DHT22;5283;48.876;8.962;2023-07-24T16:07:19;21.50;99.90
10472;DHT22;5283;48.876;8.962;2023-07-24T16:09:46;21.20;99.90
10472;DHT22;5283;48.876;8.962;2023-07-24T16:12:13;20.70;99.90
10472;DHT22;5283;48.876;8.962;2023-07-24T16:14:40;20.00;99.90
10472;DHT22;5283;48.876;8.962;2023-07-24T16:17:07;19.20;99.90
10472;DHT22;5283;48.876;8.962;2023-07-24T16:19:34;18.50;99.90
10472;DHT22;5283;48.876;8.962;2023-07-24T16:22:12;18.20;99.90
10472;DHT22;5283;48.876;8.962;2023-07-24T16:24:42;18.20;99.90
10472;DHT22;5283;48.876;8.962;2023-07-24T16:27:09;18.20;99.90
10472;DHT22;5283;48.876;8.962;2023-07-24T16:29:35;18.00;99.90
10472;DHT22;5283;48.876;8.962;2023-07-24T16:32:05;18.00;99.90
10472;DHT22;5283;48.876;8.962;2023-07-24T16:34:32;17.90;99.90
10472;DHT22;5283;48.876;8.962;2023-07-24T16:37:03;17.70;99.90
10472;DHT22;5283;48.876;8.962;2023-07-24T16:39:31;17.70;99.90
10472;DHT22;5283;48.876;8.962;2023-07-24T16:41:58;17.70;99.90
10472;DHT22;5283;48.876;8.962;2023-07-24T16:44:25;17.70;99.90
10472;DHT22;5283;48.876;8.962;2023-07-24T16:46:54;17.70;99.90
10472;DHT22;5283;48.876;8.962;2023-07-24T16:49:37;17.80;99.90
10472;DHT22;5283;48.876;8.962;2023-07-24T16:52:04;18.10;99.90
10472;DHT22;5283;48.876;8.962;2023-07-24T16:54:31;18.50;99.90
10472;DHT22;5283;48.876;8.962;2023-07-24T16:57:02;18.70;99.90
10472;DHT22;5283;48.876;8.962;2023-07-24T16:59:29;19.00;99.90
10472;DHT22;5283;48.876;8.962;2023-07-24T17:01:56;18.90;99.90
10472;DHT22;5283;48.876;8.962;2023-07-24T17:04:23;18.60;99.90
10472;DHT22;5283;48.876;8.962;2023-07-24T17:06:50;18.60;99.90
10472;DHT22;5283;48.876;8.962;2023-07-24T17:09:17;18.60;99.90
10472;DHT22;5283;48.876;8.962;2023-07-24T17:11:46;18.70;99.90
10472;DHT22;5283;48.876;8.962;2023-07-24T17:14:13;18.60;99.90
10472;DHT22;5283;48.876;8.962;2023-07-24T17:16:40;18.60;99.90
10472;DHT22;5283;48.876;8.962;2023-07-24T17:19:07;18.80;99.90
10472;DHT22;5283;48.876;8.962;2023-07-24T17:21:36;18.90;99.90
10472;DHT22;5283;48.876;8.962;2023-07-24T17:24:03;18.80;99.90
10472;DHT22;5283;48.876;8.962;2023-07-24T17:26:30;18.70;99.90
10472;DHT22;5283;48.876;8.962;2023-07-24T17:29:01;18.60;99.90
10472;DHT22;5283;48.876;8.962;2023-07-24T17:31:31;18.60;99.90
10472;DHT22;5283;48.876;8.962;2023-07-24T17:33:58;18.50;99.90
10472;DHT22;5283;48.876;8.962;2023-07-24T17:36:26;18.50;99.90
10472;DHT22;5283;48.876;8.962;2023-07-24T17:38:53;18.50;99.90
10472;DHT22;5283;48.876;8.962;2023-07-24T17:41:21;18.40;99.90
10472;DHT22;5283;48.876;8.962;2023-07-24T17:43:48;18.40;99.90
10472;DHT22;5283;48.876;8.962;2023-07-24T17:46:15;18.40;99.90
10472;DHT22;5283;48.876;8.962;2023-07-24T17:48:46;18.30;99.90
10472;DHT22;5283;48.876;8.962;2023-07-24T17:51:13;18.20;99.90
10472;DHT22;5283;48.876;8.962;2023-07-24T17:53:39;18.20;99.90
10472;DHT22;5283;48.876;8.962;2023-07-24T17:56:06;18.10;99.90
10472;DHT22;5283;48.876;8.962;2023-07-24T17:58:33;18.20;99.90
10472;DHT22;5283;48.876;8.962;2023-07-24T18:01:00;18.10;99.90
10472;DHT22;5283;48.876;8.962;2023-07-24T18:03:27;18.00;99.90
10472;DHT22;5283;48.876;8.962;2023-07-24T18:05:54;18.00;99.90
10472;DHT22;5283;48.876;8.962;2023-07-24T18:08:22;17.90;99.90
10472;DHT22;5283;48.876;8.962;2023-07-24T18:10:49;17.80;99.90
10472;DHT22;5283;48.876;8.962;2023-07-24T18:13:16;17.80;99.90
10472;DHT22;5283;48.876;8.962;2023-07-24T18:15:43;17.70;99.90
10472;DHT22;5283;48.876;8.962;2023-07-24T18:18:10;17.60;99.90
10472;DHT22;5283;48.876;8.962;2023-07-24T18:20:36;17.50;99.90
10472;DHT22;5283;48.876;8.962;2023-07-24T18:23:03;17.40;99.90
10472;DHT22;5283;48.876;8.962;2023-07-24T18:25:30;17.40;99.90
10472;DHT22;5283;48.876;8.962;2023-07-24T18:27:57;17.30;99.90
10472;DHT22;5283;48.876;8.962;2023-07-24T18:30:24;17.30;99.90
10472;DHT22;5283;48.876;8.962;2023-07-24T18:32:55;17.20;99.90
10472;DHT22;5283;48.876;8.962;2023-07-24T18:35:22;17.10;99.90
10472;DHT22;5283;48.876;8.962;2023-07-24T18:37:49;17.00;99.90
10472;DHT22;5283;48.876;8.962;2023-07-24T18:40:16;17.00;99.90
10472;DHT22;5283;48.876;8.962;2023-07-24T18:42:43;16.90;99.90
10472;DHT22;5283;48.876;8.962;2023-07-24T18:45:10;16.90;99.90
10472;DHT22;5283;48.876;8.962;2023-07-24T18:47:37;16.80;99.90
10472;DHT22;5283;48.876;8.962;2023-07-24T18:50:04;16.80;99.90
10472;DHT22;5283;48.876;8.962;2023-07-24T18:52:31;16.70;99.90
10472;DHT22;5283;48.876;8.962;2023-07-24T18:54:58;16.60;99.90
10472;DHT22;5283;48.876;8.962;2023-07-24T18:57:25;16.50;99.90
10472;DHT22;5283;48.876;8.962;2023-07-24T18:59:52;16.50;99.90
10472;DHT22;5283;48.876;8.962;2023-07-24T19:02:19;16.40;99.90
10472;DHT22;5283;48.876;8.962;2023-07-24T19:04:46;16.30;99.90
10472;DHT22;5283;48.876;8.962;2023-07-24T19:07:13;16.30;99.90
10472;DHT22;5283;48.876;8.962;2023-07-24T19:09:40;16.20;99.90
10472;DHT22;5283;48.876;8.962;2023-07-24T19:12:07;16.20;99.90
10472;DHT22;5283;48.876;8.962;2023-07-24T19:14:34;16.10;99.90
10472;DHT22;5283;48.876;8.962;2023-07-24T19:17:00;16.10;99.90
10472;DHT22;5283;48.876;8.962;2023-07-24T19:19:27;16.00;99.90
10472;DHT22;5283;48.876;8.962;2023-07-24T19:21:54;15.90;99.90
10472;DHT22;5283;48.876;8.962;2023-07-24T19:24:21;15.90;99.90
10472;DHT22;5283;48.876;8.962;2023-07-24T19:26:48;15.80;99.90
10472;DHT22;5283;48.876;8.962;2023-07-24T19:29:15;15.80;99.90
10472;DHT22;5283;48.876;8.962;2023-07-24T19:31:42;15.60;99.90
10472;DHT22;5283;48.876;8.962;2023-07-24T19:34:09;15.50;99.90
10472;DHT22;5283;48.876;8.962;2023-07-24T19:36:36;15.40;99.90
10472;DHT22;5283;48.876;8.962;2023-07-24T19:39:02;15.30;99.90
10472;DHT22;5283;48.876;8.962;2023-07-24T19:41:32;15.10;99.90
10472;DHT22;5283;48.876;8.962;2023-07-24T19:43:59;15.00;99.90
10472;DHT22;5283;48.876;8.962;2023-07-24T19:46:26;14.90;99.90